sensor_id;sensor_type;location;lat;lon;timestamp;P1;durP1;ratioP1;P2;durP2;ratioP2
23388;SDS011;11867;51.198;11.966;2023-07-13T00:00:17;2.13;;;1.50;;
23388;SDS011;11867;51.198;11.966;2023-07-13T00:01:40;3.83;;;1.50;;
23388;SDS011;11867;51.198;11.966;2023-07-13T00:03:04;2.53;;;1.23;;
23388;SDS011;11867;51.198;11.966;2023-07-13T00:04:27;3.08;;;1.77;;
23388;SDS011;11867;51.198;11.966;2023-07-13T00:05:57;2.97;;;1.38;;
23388;SDS011;11867;51.198;11.966;2023-07-13T00:07:20;2.53;;;1.70;;
23388;SDS011;11867;51.198;11.966;2023-07-13T00:08:42;5.10;;;1.60;;
23388;SDS011;11867;51.198;11.966;2023-07-13T00:10:06;2.22;;;1.50;;
23388;SDS011;11867;51.198;11.966;2023-07-13T00:11:29;2.83;;;1.50;;
23388;SDS011;11867;51.198;11.966;2023-07-13T00:12:52;2.42;;;1.65;;
23388;SDS011;11867;51.198;11.966;2023-07-13T00:14:16;3.13;;;1.30;;
23388;SDS011;11867;51.198;11.966;2023-07-13T00:15:39;4.93;;;1.55;;
23388;SDS011;11867;51.198;11.966;2023-07-13T00:17:02;2.55;;;1.33;;
23388;SDS011;11867;51.198;11.966;2023-07-13T00:18:26;4.05;;;1.33;;
23388;SDS011;11867;51.198;11.966;2023-07-13T00:19:51;1.88;;;1.30;;
23388;SDS011;11867;51.198;11.966;2023-07-13T00:21:14;2.65;;;1.70;;
23388;SDS011;11867;51.198;11.966;2023-07-13T00:22:36;4.53;;;1.30;;
23388;SDS011;11867;51.198;11.966;2023-07-13T00:23:59;3.53;;;1.80;;
23388;SDS011;11867;51.198;11.966;2023-07-13T00:25:22;2.90;;;1.92;;
23388;SDS011;11867;51.198;11.966;2023-07-13T00:26:49;2.65;;;1.17;;
23388;SDS011;11867;51.198;11.966;2023-07-13T00:28:11;3.25;;;1.25;;
23388;SDS011;11867;51.198;11.966;2023-07-13T00:29:34;4.43;;;1.42;;
23388;SDS011;11867;51.198;11.966;2023-07-13T00:30:56;1.90;;;1.30;;
23388;SDS011;11867;51.198;11.966;2023-07-13T00:32:19;3.28;;;1.70;;
23388;SDS011;11867;51.198;11.966;2023-07-13T00:33:43;4.53;;;1.58;;
23388;SDS011;11867;51.198;11.966;2023-07-13T00:35:07;2.35;;;1.20;;
23388;SDS011;11867;51.198;11.966;2023-07-13T00:36:29;4.55;;;1.27;;
23388;SDS011;11867;51.198;11.966;2023-07-13T00:37:53;3.22;;;1.60;;
23388;SDS011;11867;51.198;11.966;2023-07-13T00:39:15;3.35;;;1.45;;
23388;SDS011;11867;51.198;11.966;2023-07-13T00:40:38;8.45;;;1.90;;
23388;SDS011;11867;51.198;11.966;2023-07-13T00:42:00;3.47;;;1.52;;
23388;SDS011;11867;51.198;11.966;2023-07-13T00:43:25;5.30;;;1.58;;
23388;SDS011;11867;51.198;11.966;2023-07-13T00:45:02;2.45;;;1.48;;
23388;SDS011;11867;51.198;11.966;2023-07-13T00:46:27;3.20;;;1.38;;
23388;SDS011;11867;51.198;11.966;2023-07-13T00:47:51;3.53;;;1.20;;
23388;SDS011;11867;51.198;11.966;2023-07-13T00:49:18;2.72;;;1.15;;
23388;SDS011;11867;51.198;11.966;2023-07-13T00:50:42;3.67;;;1.13;;
23388;SDS011;11867;51.198;11.966;2023-07-13T00:52:07;2.78;;;1.20;;
23388;SDS011;11867;51.198;11.966;2023-07-13T00:53:32;3.53;;;1.20;;
23388;SDS011;11867;51.198;11.966;2023-07-13T00:54:55;2.67;;;1.20;;
23388;SDS011;11867;51.198;11.966;2023-07-13T00:56:19;3.35;;;1.55;;
23388;SDS011;11867;51.198;11.966;2023-07-13T00:57:42;1.67;;;1.20;;
23388;SDS011;11867;51.198;11.966;2023-07-13T00:59:06;1.88;;;0.95;;
23388;SDS011;11867;51.198;11.966;2023-07-13T01:00:32;2.75;;;1.30;;
23388;SDS011;11867;51.198;11.966;2023-07-13T01:01:56;3.35;;;1.27;;
23388;SDS011;11867;51.198;11.966;2023-07-13T01:03:19;2.47;;;1.30;;
23388;SDS011;11867;51.198;11.966;2023-07-13T01:04:44;2.70;;;1.27;;
23388;SDS011;11867;51.198;11.966;2023-07-13T01:06:06;3.72;;;1.45;;
23388;SDS011;11867;51.198;11.966;2023-07-13T01:07:30;1.92;;;1.30;;
23388;SDS011;11867;51.198;11.966;2023-07-13T01:08:52;3.97;;;1.50;;
23388;SDS011;11867;51.198;11.966;2023-07-13T01:10:15;5.13;;;1.30;;
23388;SDS011;11867;51.198;11.966;2023-07-13T01:11:39;2.30;;;1.00;;
23388;SDS011;11867;51.198;11.966;2023-07-13T01:13:02;2.58;;;1.20;;
23388;SDS011;11867;51.198;11.966;2023-07-13T01:14:25;3.90;;;1.30;;
23388;SDS011;11867;51.198;11.966;2023-07-13T01:15:48;2.15;;;1.10;;
23388;SDS011;11867;51.198;11.966;2023-07-13T01:17:12;3.50;;;1.17;;
23388;SDS011;11867;51.198;11.966;2023-07-13T01:18:36;2.85;;;1.50;;
23388;SDS011;11867;51.198;11.966;2023-07-13T01:20:00;1.75;;;1.40;;
23388;SDS011;11867;51.198;11.966;2023-07-13T01:21:24;1.60;;;1.10;;
23388;SDS011;11867;51.198;11.966;2023-07-13T01:22:46;2.17;;;1.10;;
23388;SDS011;11867;51.198;11.966;2023-07-13T01:24:09;4.82;;;1.45;;
23388;SDS011;11867;51.198;11.966;2023-07-13T01:25:31;5.00;;;1.40;;
23388;SDS011;11867;51.198;11.966;2023-07-13T01:26:54;4.35;;;1.23;;
23388;SDS011;11867;51.198;11.966;2023-07-13T01:28:17;2.40;;;1.25;;
23388;SDS011;11867;51.198;11.966;2023-07-13T01:29:40;3.03;;;1.15;;
23388;SDS011;11867;51.198;11.966;2023-07-13T01:31:04;4.25;;;1.10;;
23388;SDS011;11867;51.198;11.966;2023-07-13T01:32:26;1.27;;;1.00;;
23388;SDS011;11867;51.198;11.966;2023-07-13T01:33:49;6.35;;;1.25;;
23388;SDS011;11867;51.198;11.966;2023-07-13T01:35:12;2.65;;;1.15;;
23388;SDS011;11867;51.198;11.966;2023-07-13T01:36:35;4.13;;;1.10;;
23388;SDS011;11867;51.198;11.966;2023-07-13T01:37:58;1.85;;;1.23;;
23388;SDS011;11867;51.198;11.966;2023-07-13T01:39:22;2.55;;;1.20;;
23388;SDS011;11867;51.198;11.966;2023-07-13T01:40:45;5.25;;;1.25;;
23388;SDS011;11867;51.198;11.966;2023-07-13T01:42:08;6.00;;;1.40;;
23388;SDS011;11867;51.198;11.966;2023-07-13T01:43:31;1.88;;;1.48;;
23388;SDS011;11867;51.198;11.966;2023-07-13T01:44:54;1.77;;;1.20;;
23388;SDS011;11867;51.198;11.966;2023-07-13T01:46:16;2.28;;;1.08;;
23388;SDS011;11867;51.198;11.966;2023-07-13T01:47:44;1.88;;;1.25;;
23388;SDS011;11867;51.198;11.966;2023-07-13T01:49:06;2.10;;;1.20;;
23388;SDS011;11867;51.198;11.966;2023-07-13T01:50:29;3.63;;;1.27;;
23388;SDS011;11867;51.198;11.966;2023-07-13T01:51:52;2.20;;;1.35;;
23388;SDS011;11867;51.198;11.966;2023-07-13T01:53:15;2.70;;;1.45;;
23388;SDS011;11867;51.198;11.966;2023-07-13T01:54:37;2.42;;;2.03;;
23388;SDS011;11867;51.198;11.966;2023-07-13T01:56:00;3.25;;;1.30;;
23388;SDS011;11867;51.198;11.966;2023-07-13T01:57:22;7.00;;;1.52;;
23388;SDS011;11867;51.198;11.966;2023-07-13T01:58:44;3.65;;;1.35;;
23388;SDS011;11867;51.198;11.966;2023-07-13T02:00:08;3.58;;;1.45;;
23388;SDS011;11867;51.198;11.966;2023-07-13T02:01:32;3.42;;;1.50;;
23388;SDS011;11867;51.198;11.966;2023-07-13T02:02:55;5.85;;;1.77;;
23388;SDS011;11867;51.198;11.966;2023-07-13T02:04:17;3.28;;;1.55;;
23388;SDS011;11867;51.198;11.966;2023-07-13T02:05:40;2.35;;;1.20;;
23388;SDS011;11867;51.198;11.966;2023-07-13T02:07:04;3.40;;;1.45;;
23388;SDS011;11867;51.198;11.966;2023-07-13T02:08:27;3.55;;;1.30;;
23388;SDS011;11867;51.198;11.966;2023-07-13T02:09:49;3.08;;;1.50;;
23388;SDS011;11867;51.198;11.966;2023-07-13T02:11:12;2.65;;;1.65;;
23388;SDS011;11867;51.198;11.966;2023-07-13T02:12:34;2.35;;;1.38;;
23388;SDS011;11867;51.198;11.966;2023-07-13T02:13:57;3.80;;;1.90;;
23388;SDS011;11867;51.198;11.966;2023-07-13T02:15:19;2.97;;;1.70;;
23388;SDS011;11867;51.198;11.966;2023-07-13T02:16:42;3.45;;;1.60;;
23388;SDS011;11867;51.198;11.966;2023-07-13T02:18:04;1.58;;;1.45;;
23388;SDS011;11867;51.198;11.966;2023-07-13T02:19:27;3.25;;;1.38;;
23388;SDS011;11867;51.198;11.966;2023-07-13T02:20:49;2.28;;;1.55;;
23388;SDS011;11867;51.198;11.966;2023-07-13T02:22:14;3.30;;;1.38;;
23388;SDS011;11867;51.198;11.966;2023-07-13T02:23:36;3.42;;;1.50;;
23388;SDS011;11867;51.198;11.966;2023-07-13T02:24:58;1.70;;;1.23;;
23388;SDS011;11867;51.198;11.966;2023-07-13T02:26:21;5.97;;;1.45;;
23388;SDS011;11867;51.198;11.966;2023-07-13T02:27:43;4.88;;;1.70;;
23388;SDS011;11867;51.198;11.966;2023-07-13T02:29:05;3.75;;;1.65;;
23388;SDS011;11867;51.198;11.966;2023-07-13T02:30:28;3.05;;;1.52;;
23388;SDS011;11867;51.198;11.966;2023-07-13T02:31:51;4.18;;;1.75;;
23388;SDS011;11867;51.198;11.966;2023-07-13T02:33:13;3.20;;;1.60;;
23388;SDS011;11867;51.198;11.966;2023-07-13T02:34:36;2.85;;;1.80;;
23388;SDS011;11867;51.198;11.966;2023-07-13T02:35:58;2.58;;;1.48;;
23388;SDS011;11867;51.198;11.966;2023-07-13T02:37:22;1.88;;;1.25;;
23388;SDS011;11867;51.198;11.966;2023-07-13T02:38:44;1.88;;;1.60;;
23388;SDS011;11867;51.198;11.966;2023-07-13T02:40:07;3.15;;;1.63;;
23388;SDS011;11867;51.198;11.966;2023-07-13T02:41:30;3.03;;;1.65;;
23388;SDS011;11867;51.198;11.966;2023-07-13T02:42:53;2.03;;;1.55;;
23388;SDS011;11867;51.198;11.966;2023-07-13T02:44:15;3.65;;;1.65;;
23388;SDS011;11867;51.198;11.966;2023-07-13T02:45:38;3.33;;;1.45;;
23388;SDS011;11867;51.198;11.966;2023-07-13T02:47:05;2.45;;;1.40;;
23388;SDS011;11867;51.198;11.966;2023-07-13T02:48:28;5.93;;;1.65;;
23388;SDS011;11867;51.198;11.966;2023-07-13T02:49:50;5.53;;;1.70;;
23388;SDS011;11867;51.198;11.966;2023-07-13T02:51:13;3.83;;;1.60;;
23388;SDS011;11867;51.198;11.966;2023-07-13T02:52:36;4.28;;;1.77;;
23388;SDS011;11867;51.198;11.966;2023-07-13T02:53:59;6.82;;;1.90;;
23388;SDS011;11867;51.198;11.966;2023-07-13T02:55:21;3.67;;;1.60;;
23388;SDS011;11867;51.198;11.966;2023-07-13T02:56:44;4.10;;;1.70;;
23388;SDS011;11867;51.198;11.966;2023-07-13T02:58:06;2.80;;;1.45;;
23388;SDS011;11867;51.198;11.966;2023-07-13T02:59:29;2.17;;;1.42;;
23388;SDS011;11867;51.198;11.966;2023-07-13T03:00:51;5.65;;;1.90;;
23388;SDS011;11867;51.198;11.966;2023-07-13T03:02:14;2.35;;;1.63;;
23388;SDS011;11867;51.198;11.966;2023-07-13T03:03:36;1.83;;;1.48;;
23388;SDS011;11867;51.198;11.966;2023-07-13T03:04:59;2.88;;;1.40;;
23388;SDS011;11867;51.198;11.966;2023-07-13T03:06:22;2.53;;;1.60;;
23388;SDS011;11867;51.198;11.966;2023-07-13T03:07:47;4.43;;;1.40;;
23388;SDS011;11867;51.198;11.966;2023-07-13T03:09:09;2.83;;;2.05;;
23388;SDS011;11867;51.198;11.966;2023-07-13T03:10:34;4.13;;;1.75;;
23388;SDS011;11867;51.198;11.966;2023-07-13T03:11:56;4.68;;;1.70;;
23388;SDS011;11867;51.198;11.966;2023-07-13T03:13:19;7.15;;;1.60;;
23388;SDS011;11867;51.198;11.966;2023-07-13T03:14:41;3.33;;;1.83;;
23388;SDS011;11867;51.198;11.966;2023-07-13T03:16:04;3.95;;;2.15;;
23388;SDS011;11867;51.198;11.966;2023-07-13T03:17:27;4.15;;;1.67;;
23388;SDS011;11867;51.198;11.966;2023-07-13T03:18:50;5.20;;;2.05;;
23388;SDS011;11867;51.198;11.966;2023-07-13T03:20:11;3.85;;;1.80;;
23388;SDS011;11867;51.198;11.966;2023-07-13T03:21:34;2.92;;;1.73;;
23388;SDS011;11867;51.198;11.966;2023-07-13T03:22:58;3.35;;;1.45;;
23388;SDS011;11867;51.198;11.966;2023-07-13T03:24:21;2.58;;;1.58;;
23388;SDS011;11867;51.198;11.966;2023-07-13T03:25:47;3.63;;;1.90;;
23388;SDS011;11867;51.198;11.966;2023-07-13T03:27:09;3.88;;;1.95;;
23388;SDS011;11867;51.198;11.966;2023-07-13T03:28:33;7.25;;;1.88;;
23388;SDS011;11867;51.198;11.966;2023-07-13T03:29:55;5.35;;;1.70;;
23388;SDS011;11867;51.198;11.966;2023-07-13T03:31:19;7.15;;;2.42;;
23388;SDS011;11867;51.198;11.966;2023-07-13T03:32:42;2.60;;;1.52;;
23388;SDS011;11867;51.198;11.966;2023-07-13T03:34:05;2.22;;;1.65;;
23388;SDS011;11867;51.198;11.966;2023-07-13T03:35:27;5.05;;;1.90;;
23388;SDS011;11867;51.198;11.966;2023-07-13T03:36:50;4.15;;;1.98;;
23388;SDS011;11867;51.198;11.966;2023-07-13T03:38:14;4.78;;;1.98;;
23388;SDS011;11867;51.198;11.966;2023-07-13T03:39:36;4.10;;;1.70;;
23388;SDS011;11867;51.198;11.966;2023-07-13T03:40:59;3.90;;;1.75;;
23388;SDS011;11867;51.198;11.966;2023-07-13T03:42:21;6.95;;;2.35;;
23388;SDS011;11867;51.198;11.966;2023-07-13T03:43:44;4.82;;;1.80;;
23388;SDS011;11867;51.198;11.966;2023-07-13T03:45:06;5.32;;;1.83;;
23388;SDS011;11867;51.198;11.966;2023-07-13T03:46:30;4.63;;;2.03;;
23388;SDS011;11867;51.198;11.966;2023-07-13T03:47:53;2.15;;;1.52;;
23388;SDS011;11867;51.198;11.966;2023-07-13T03:49:15;2.28;;;2.00;;
23388;SDS011;11867;51.198;11.966;2023-07-13T03:50:37;4.35;;;1.88;;
23388;SDS011;11867;51.198;11.966;2023-07-13T03:52:00;2.42;;;2.17;;
23388;SDS011;11867;51.198;11.966;2023-07-13T03:53:25;2.85;;;1.77;;
23388;SDS011;11867;51.198;11.966;2023-07-13T03:54:47;9.68;;;2.33;;
23388;SDS011;11867;51.198;11.966;2023-07-13T03:56:10;3.38;;;2.13;;
23388;SDS011;11867;51.198;11.966;2023-07-13T03:57:33;4.28;;;2.15;;
23388;SDS011;11867;51.198;11.966;2023-07-13T03:58:59;4.88;;;2.20;;
23388;SDS011;11867;51.198;11.966;2023-07-13T04:00:21;3.85;;;2.00;;
23388;SDS011;11867;51.198;11.966;2023-07-13T04:01:44;3.50;;;2.22;;
23388;SDS011;11867;51.198;11.966;2023-07-13T04:03:06;3.70;;;1.95;;
23388;SDS011;11867;51.198;11.966;2023-07-13T04:04:29;3.50;;;2.15;;
23388;SDS011;11867;51.198;11.966;2023-07-13T04:05:52;2.95;;;1.73;;
23388;SDS011;11867;51.198;11.966;2023-07-13T04:07:15;4.38;;;2.03;;
23388;SDS011;11867;51.198;11.966;2023-07-13T04:08:38;4.25;;;2.10;;
23388;SDS011;11867;51.198;11.966;2023-07-13T04:10:01;2.92;;;2.00;;
23388;SDS011;11867;51.198;11.966;2023-07-13T04:11:25;4.38;;;2.30;;
23388;SDS011;11867;51.198;11.966;2023-07-13T04:12:50;2.65;;;1.95;;
23388;SDS011;11867;51.198;11.966;2023-07-13T04:14:11;5.13;;;2.00;;
23388;SDS011;11867;51.198;11.966;2023-07-13T04:15:34;2.40;;;1.73;;
23388;SDS011;11867;51.198;11.966;2023-07-13T04:16:56;3.47;;;2.10;;
23388;SDS011;11867;51.198;11.966;2023-07-13T04:18:20;3.33;;;2.10;;
23388;SDS011;11867;51.198;11.966;2023-07-13T04:19:42;5.07;;;1.95;;
23388;SDS011;11867;51.198;11.966;2023-07-13T04:21:05;5.72;;;2.33;;
23388;SDS011;11867;51.198;11.966;2023-07-13T04:22:27;2.30;;;2.10;;
23388;SDS011;11867;51.198;11.966;2023-07-13T04:23:51;3.22;;;1.98;;
23388;SDS011;11867;51.198;11.966;2023-07-13T04:25:13;7.03;;;2.00;;
23388;SDS011;11867;51.198;11.966;2023-07-13T04:26:36;7.15;;;2.25;;
23388;SDS011;11867;51.198;11.966;2023-07-13T04:28:00;5.15;;;1.90;;
23388;SDS011;11867;51.198;11.966;2023-07-13T04:29:22;4.15;;;2.00;;
23388;SDS011;11867;51.198;11.966;2023-07-13T04:30:45;2.53;;;2.00;;
23388;SDS011;11867;51.198;11.966;2023-07-13T04:32:07;2.88;;;2.10;;
23388;SDS011;11867;51.198;11.966;2023-07-13T04:33:30;3.90;;;2.00;;
23388;SDS011;11867;51.198;11.966;2023-07-13T04:34:52;3.97;;;2.03;;
23388;SDS011;11867;51.198;11.966;2023-07-13T04:36:17;2.35;;;2.05;;
23388;SDS011;11867;51.198;11.966;2023-07-13T04:37:39;4.10;;;2.30;;
23388;SDS011;11867;51.198;11.966;2023-07-13T04:39:04;3.58;;;2.05;;
23388;SDS011;11867;51.198;11.966;2023-07-13T04:40:27;6.68;;;2.80;;
23388;SDS011;11867;51.198;11.966;2023-07-13T04:41:50;3.75;;;2.28;;
23388;SDS011;11867;51.198;11.966;2023-07-13T04:43:13;4.15;;;2.17;;
23388;SDS011;11867;51.198;11.966;2023-07-13T04:44:35;5.85;;;2.20;;
23388;SDS011;11867;51.198;11.966;2023-07-13T04:46:02;5.15;;;2.20;;
23388;SDS011;11867;51.198;11.966;2023-07-13T04:47:25;4.25;;;2.53;;
23388;SDS011;11867;51.198;11.966;2023-07-13T04:48:49;3.13;;;2.20;;
23388;SDS011;11867;51.198;11.966;2023-07-13T04:50:12;7.00;;;2.20;;
23388;SDS011;11867;51.198;11.966;2023-07-13T04:51:41;6.65;;;2.10;;
23388;SDS011;11867;51.198;11.966;2023-07-13T04:53:03;2.60;;;2.05;;
23388;SDS011;11867;51.198;11.966;2023-07-13T04:54:27;5.35;;;1.90;;
23388;SDS011;11867;51.198;11.966;2023-07-13T04:55:49;4.95;;;1.88;;
23388;SDS011;11867;51.198;11.966;2023-07-13T04:57:12;3.45;;;2.03;;
23388;SDS011;11867;51.198;11.966;2023-07-13T04:58:34;2.30;;;1.90;;
23388;SDS011;11867;51.198;11.966;2023-07-13T04:59:57;3.05;;;2.00;;
23388;SDS011;11867;51.198;11.966;2023-07-13T05:01:22;4.28;;;2.15;;
23388;SDS011;11867;51.198;11.966;2023-07-13T05:02:46;3.03;;;1.90;;
23388;SDS011;11867;51.198;11.966;2023-07-13T05:04:08;4.68;;;1.95;;
23388;SDS011;11867;51.198;11.966;2023-07-13T05:05:31;3.83;;;1.80;;
23388;SDS011;11867;51.198;11.966;2023-07-13T05:06:53;3.95;;;1.98;;
23388;SDS011;11867;51.198;11.966;2023-07-13T05:08:16;2.13;;;1.80;;
23388;SDS011;11867;51.198;11.966;2023-07-13T05:09:39;3.20;;;2.00;;
23388;SDS011;11867;51.198;11.966;2023-07-13T05:11:03;2.90;;;2.10;;
23388;SDS011;11867;51.198;11.966;2023-07-13T05:12:26;2.58;;;1.95;;
23388;SDS011;11867;51.198;11.966;2023-07-13T05:13:49;3.72;;;1.83;;
23388;SDS011;11867;51.198;11.966;2023-07-13T05:15:11;2.65;;;2.03;;
23388;SDS011;11867;51.198;11.966;2023-07-13T05:16:34;2.05;;;1.65;;
23388;SDS011;11867;51.198;11.966;2023-07-13T05:17:55;1.70;;;1.60;;
23388;SDS011;11867;51.198;11.966;2023-07-13T05:19:19;3.65;;;1.92;;
23388;SDS011;11867;51.198;11.966;2023-07-13T05:20:40;4.05;;;2.67;;
23388;SDS011;11867;51.198;11.966;2023-07-13T05:22:03;3.25;;;1.95;;
23388;SDS011;11867;51.198;11.966;2023-07-13T05:23:26;3.05;;;2.05;;
23388;SDS011;11867;51.198;11.966;2023-07-13T05:24:50;3.42;;;2.22;;
23388;SDS011;11867;51.198;11.966;2023-07-13T05:26:12;4.30;;;1.98;;
23388;SDS011;11867;51.198;11.966;2023-07-13T05:27:36;3.05;;;1.73;;
23388;SDS011;11867;51.198;11.966;2023-07-13T05:28:58;4.13;;;1.80;;
23388;SDS011;11867;51.198;11.966;2023-07-13T05:30:21;2.35;;;2.10;;
23388;SDS011;11867;51.198;11.966;2023-07-13T05:31:43;6.47;;;2.00;;
23388;SDS011;11867;51.198;11.966;2023-07-13T05:33:06;5.25;;;2.40;;
23388;SDS011;11867;51.198;11.966;2023-07-13T05:34:28;2.67;;;1.80;;
23388;SDS011;11867;51.198;11.966;2023-07-13T05:35:51;2.83;;;1.90;;
23388;SDS011;11867;51.198;11.966;2023-07-13T05:37:13;4.82;;;2.00;;
23388;SDS011;11867;51.198;11.966;2023-07-13T05:38:36;3.55;;;1.80;;
23388;SDS011;11867;51.198;11.966;2023-07-13T05:39:59;5.63;;;1.85;;
23388;SDS011;11867;51.198;11.966;2023-07-13T05:41:22;2.78;;;1.80;;
23388;SDS011;11867;51.198;11.966;2023-07-13T05:42:44;3.17;;;1.65;;
23388;SDS011;11867;51.198;11.966;2023-07-13T05:44:07;11.82;;;2.63;;
23388;SDS011;11867;51.198;11.966;2023-07-13T05:45:30;3.50;;;1.90;;
23388;SDS011;11867;51.198;11.966;2023-07-13T05:46:53;3.80;;;2.15;;
23388;SDS011;11867;51.198;11.966;2023-07-13T05:48:16;2.75;;;1.83;;
23388;SDS011;11867;51.198;11.966;2023-07-13T05:49:39;5.03;;;2.08;;
23388;SDS011;11867;51.198;11.966;2023-07-13T05:51:01;2.13;;;1.92;;
23388;SDS011;11867;51.198;11.966;2023-07-13T05:52:25;3.83;;;2.25;;
23388;SDS011;11867;51.198;11.966;2023-07-13T05:53:47;2.15;;;1.70;;
23388;SDS011;11867;51.198;11.966;2023-07-13T05:55:11;4.53;;;2.30;;
23388;SDS011;11867;51.198;11.966;2023-07-13T05:56:33;2.05;;;1.85;;
23388;SDS011;11867;51.198;11.966;2023-07-13T05:57:56;4.18;;;1.80;;
23388;SDS011;11867;51.198;11.966;2023-07-13T05:59:19;2.85;;;1.83;;
23388;SDS011;11867;51.198;11.966;2023-07-13T06:00:42;2.95;;;1.92;;
23388;SDS011;11867;51.198;11.966;2023-07-13T06:02:05;5.07;;;1.98;;
23388;SDS011;11867;51.198;11.966;2023-07-13T06:03:28;3.10;;;2.00;;
23388;SDS011;11867;51.198;11.966;2023-07-13T06:04:51;5.38;;;1.75;;
23388;SDS011;11867;51.198;11.966;2023-07-13T06:06:14;3.75;;;1.75;;
23388;SDS011;11867;51.198;11.966;2023-07-13T06:07:37;5.50;;;1.80;;
23388;SDS011;11867;51.198;11.966;2023-07-13T06:09:00;4.05;;;2.13;;
23388;SDS011;11867;51.198;11.966;2023-07-13T06:10:25;5.93;;;2.00;;
23388;SDS011;11867;51.198;11.966;2023-07-13T06:11:47;3.90;;;1.90;;
23388;SDS011;11867;51.198;11.966;2023-07-13T06:13:10;3.03;;;1.60;;
23388;SDS011;11867;51.198;11.966;2023-07-13T06:14:32;4.68;;;2.50;;
23388;SDS011;11867;51.198;11.966;2023-07-13T06:15:55;3.83;;;1.98;;
23388;SDS011;11867;51.198;11.966;2023-07-13T06:17:16;5.07;;;1.98;;
23388;SDS011;11867;51.198;11.966;2023-07-13T06:18:40;2.55;;;2.35;;
23388;SDS011;11867;51.198;11.966;2023-07-13T06:20:02;3.63;;;2.10;;
23388;SDS011;11867;51.198;11.966;2023-07-13T06:21:25;4.10;;;2.42;;
23388;SDS011;11867;51.198;11.966;2023-07-13T06:22:47;4.18;;;2.20;;
23388;SDS011;11867;51.198;11.966;2023-07-13T06:24:10;4.45;;;2.08;;
23388;SDS011;11867;51.198;11.966;2023-07-13T06:25:33;3.05;;;2.03;;
23388;SDS011;11867;51.198;11.966;2023-07-13T06:26:56;4.88;;;2.60;;
23388;SDS011;11867;51.198;11.966;2023-07-13T06:28:18;3.45;;;2.00;;
23388;SDS011;11867;51.198;11.966;2023-07-13T06:29:41;5.13;;;1.95;;
23388;SDS011;11867;51.198;11.966;2023-07-13T06:31:07;6.47;;;2.28;;
23388;SDS011;11867;51.198;11.966;2023-07-13T06:32:31;3.53;;;2.10;;
23388;SDS011;11867;51.198;11.966;2023-07-13T06:33:54;3.67;;;2.13;;
23388;SDS011;11867;51.198;11.966;2023-07-13T06:35:16;4.13;;;2.08;;
23388;SDS011;11867;51.198;11.966;2023-07-13T06:36:38;3.33;;;1.73;;
23388;SDS011;11867;51.198;11.966;2023-07-13T06:38:01;4.97;;;2.15;;
23388;SDS011;11867;51.198;11.966;2023-07-13T06:39:24;4.22;;;1.42;;
23388;SDS011;11867;51.198;11.966;2023-07-13T06:40:47;8.00;;;2.30;;
23388;SDS011;11867;51.198;11.966;2023-07-13T06:42:10;3.92;;;1.67;;
23388;SDS011;11867;51.198;11.966;2023-07-13T06:43:35;2.55;;;1.40;;
23388;SDS011;11867;51.198;11.966;2023-07-13T06:44:58;4.75;;;1.90;;
23388;SDS011;11867;51.198;11.966;2023-07-13T06:46:20;4.60;;;1.75;;
23388;SDS011;11867;51.198;11.966;2023-07-13T06:47:44;3.10;;;1.67;;
23388;SDS011;11867;51.198;11.966;2023-07-13T06:49:07;3.63;;;2.03;;
23388;SDS011;11867;51.198;11.966;2023-07-13T06:50:31;3.03;;;1.50;;
23388;SDS011;11867;51.198;11.966;2023-07-13T06:51:53;2.72;;;1.40;;
23388;SDS011;11867;51.198;11.966;2023-07-13T06:53:16;3.97;;;1.60;;
23388;SDS011;11867;51.198;11.966;2023-07-13T06:54:39;2.70;;;1.58;;
23388;SDS011;11867;51.198;11.966;2023-07-13T06:56:03;4.03;;;1.70;;
23388;SDS011;11867;51.198;11.966;2023-07-13T06:57:26;2.53;;;1.73;;
23388;SDS011;11867;51.198;11.966;2023-07-13T06:58:49;3.83;;;2.22;;
23388;SDS011;11867;51.198;11.966;2023-07-13T07:00:12;2.33;;;1.38;;
23388;SDS011;11867;51.198;11.966;2023-07-13T07:01:35;2.15;;;1.50;;
23388;SDS011;11867;51.198;11.966;2023-07-13T07:03:01;3.25;;;1.33;;
23388;SDS011;11867;51.198;11.966;2023-07-13T07:04:24;4.60;;;1.55;;
23388;SDS011;11867;51.198;11.966;2023-07-13T07:05:46;7.25;;;2.05;;
23388;SDS011;11867;51.198;11.966;2023-07-13T07:07:09;5.53;;;1.45;;
23388;SDS011;11867;51.198;11.966;2023-07-13T07:08:31;3.55;;;1.40;;
23388;SDS011;11867;51.198;11.966;2023-07-13T07:09:54;6.32;;;1.25;;
23388;SDS011;11867;51.198;11.966;2023-07-13T07:11:17;4.55;;;1.40;;
23388;SDS011;11867;51.198;11.966;2023-07-13T07:12:43;3.33;;;1.30;;
23388;SDS011;11867;51.198;11.966;2023-07-13T07:14:05;2.10;;;1.17;;
23388;SDS011;11867;51.198;11.966;2023-07-13T07:15:28;2.97;;;1.30;;
23388;SDS011;11867;51.198;11.966;2023-07-13T07:16:51;3.15;;;1.27;;
23388;SDS011;11867;51.198;11.966;2023-07-13T07:18:14;3.85;;;1.60;;
23388;SDS011;11867;51.198;11.966;2023-07-13T07:19:36;1.83;;;1.15;;
23388;SDS011;11867;51.198;11.966;2023-07-13T07:20:59;4.72;;;1.15;;
23388;SDS011;11867;51.198;11.966;2023-07-13T07:22:22;5.50;;;1.45;;
23388;SDS011;11867;51.198;11.966;2023-07-13T07:23:45;2.42;;;1.10;;
23388;SDS011;11867;51.198;11.966;2023-07-13T07:25:08;3.80;;;1.02;;
23388;SDS011;11867;51.198;11.966;2023-07-13T07:26:31;2.40;;;1.23;;
23388;SDS011;11867;51.198;11.966;2023-07-13T07:28:15;2.92;;;1.52;;
23388;SDS011;11867;51.198;11.966;2023-07-13T07:29:42;2.10;;;1.20;;
23388;SDS011;11867;51.198;11.966;2023-07-13T07:31:11;2.35;;;1.35;;
23388;SDS011;11867;51.198;11.966;2023-07-13T07:32:37;4.57;;;1.42;;
23388;SDS011;11867;51.198;11.966;2023-07-13T07:34:02;5.03;;;1.65;;
23388;SDS011;11867;51.198;11.966;2023-07-13T07:35:25;3.75;;;1.33;;
23388;SDS011;11867;51.198;11.966;2023-07-13T07:36:47;3.58;;;1.80;;
23388;SDS011;11867;51.198;11.966;2023-07-13T07:38:13;3.03;;;1.40;;
23388;SDS011;11867;51.198;11.966;2023-07-13T07:39:35;7.03;;;1.63;;
23388;SDS011;11867;51.198;11.966;2023-07-13T07:41:02;3.78;;;1.73;;
23388;SDS011;11867;51.198;11.966;2023-07-13T07:42:29;5.57;;;1.70;;
23388;SDS011;11867;51.198;11.966;2023-07-13T07:43:52;2.55;;;1.27;;
23388;SDS011;11867;51.198;11.966;2023-07-13T07:45:15;3.67;;;1.40;;
23388;SDS011;11867;51.198;11.966;2023-07-13T07:46:37;4.93;;;1.98;;
23388;SDS011;11867;51.198;11.966;2023-07-13T07:48:00;4.25;;;1.50;;
23388;SDS011;11867;51.198;11.966;2023-07-13T07:49:22;6.45;;;1.88;;
23388;SDS011;11867;51.198;11.966;2023-07-13T07:50:45;6.70;;;2.40;;
23388;SDS011;11867;51.198;11.966;2023-07-13T07:52:07;4.50;;;1.75;;
23388;SDS011;11867;51.198;11.966;2023-07-13T07:53:30;2.17;;;1.40;;
23388;SDS011;11867;51.198;11.966;2023-07-13T07:54:55;4.63;;;1.83;;
23388;SDS011;11867;51.198;11.966;2023-07-13T07:56:37;3.25;;;1.40;;
23388;SDS011;11867;51.198;11.966;2023-07-13T07:58:05;2.40;;;1.40;;
23388;SDS011;11867;51.198;11.966;2023-07-13T07:59:47;4.15;;;1.85;;
23388;SDS011;11867;51.198;11.966;2023-07-13T08:01:13;7.30;;;1.83;;
23388;SDS011;11867;51.198;11.966;2023-07-13T08:02:40;2.97;;;1.30;;
23388;SDS011;11867;51.198;11.966;2023-07-13T08:04:22;2.92;;;1.77;;
23388;SDS011;11867;51.198;11.966;2023-07-13T08:05:48;4.13;;;1.60;;
23388;SDS011;11867;51.198;11.966;2023-07-13T08:07:13;8.07;;;1.70;;
23388;SDS011;11867;51.198;11.966;2023-07-13T08:08:36;10.30;;;1.77;;
23388;SDS011;11867;51.198;11.966;2023-07-13T08:09:58;6.70;;;1.55;;
23388;SDS011;11867;51.198;11.966;2023-07-13T08:11:21;4.10;;;1.30;;
23388;SDS011;11867;51.198;11.966;2023-07-13T08:12:46;4.95;;;1.60;;
23388;SDS011;11867;51.198;11.966;2023-07-13T08:14:13;3.08;;;1.35;;